TTL2402 SBFL-SGAS
Flight info
| Callsign | TTL2402 |
|---|---|
| Flight time | N/A |
| Altitude | 34000 |
| Route | NESMI UZ75 ESNOG DCT ESUKA UM657 OSITA DCT SIROX |
| Aircraft | B734/M-SDE2E3FHIRW/S |
Departure
| Time | 2026-04-17 17:10 |
|---|---|
| Airport | Hercílio Luz International Airport (SBFL) |
Arrival
| Time | N/A |
|---|---|
| Airport | Silvio Pettirossi International Airport (SGAS) |
| Time | Latitude | Longitude | Altitude | Speed | Heading |
|---|---|---|---|---|---|
| 2026-04-17 16:46 | -27.66584 | -48.54441 | 22 ft | 0 kts | 33° |
| 2026-04-17 17:02 | -27.66586 | -48.54442 | 22 ft | 2 kts | 33° |
| 2026-04-17 17:02 | -27.66599 | -48.54451 | 22 ft | 2 kts | 33° |
| 2026-04-17 17:03 | -27.66607 | -48.54457 | 21 ft | 2 kts | 28° |
| 2026-04-17 17:03 | -27.66621 | -48.54460 | 21 ft | 2 kts | 358° |
| 2026-04-17 17:03 | -27.66636 | -48.54457 | 21 ft | 2 kts | 334° |
| 2026-04-17 17:03 | -27.66648 | -48.54447 | 21 ft | 2 kts | 310° |
| 2026-04-17 17:04 | -27.66652 | -48.54440 | 21 ft | 1 kts | 297° |
| 2026-04-17 17:04 | -27.66654 | -48.54436 | 21 ft | 0 kts | 301° |
| 2026-04-17 17:06 | -27.66653 | -48.54437 | 21 ft | 0 kts | 301° |
| 2026-04-17 17:06 | -27.66650 | -48.54443 | 21 ft | 1 kts | 301° |
| 2026-04-17 17:06 | -27.66641 | -48.54462 | 21 ft | 4 kts | 301° |
| 2026-04-17 17:07 | -27.66613 | -48.54512 | 22 ft | 10 kts | 302° |
| 2026-04-17 17:07 | -27.66562 | -48.54600 | 23 ft | 16 kts | 304° |
| 2026-04-17 17:07 | -27.66519 | -48.54685 | 23 ft | 6 kts | 284° |
| 2026-04-17 17:07 | -27.66545 | -48.54727 | 23 ft | 9 kts | 209° |
| 2026-04-17 17:08 | -27.66627 | -48.54782 | 22 ft | 17 kts | 212° |
| 2026-04-17 17:08 | -27.66700 | -48.54878 | 20 ft | 16 kts | 286° |
| 2026-04-17 17:08 | -27.66633 | -48.55008 | 22 ft | 21 kts | 302° |
| 2026-04-17 17:08 | -27.66614 | -48.55106 | 23 ft | 1 kts | 277° |
| 2026-04-17 17:09 | -27.66606 | -48.55107 | 23 ft | 2 kts | 42° |
| 2026-04-17 17:09 | -27.66600 | -48.55070 | 23 ft | 8 kts | 101° |
| 2026-04-17 17:09 | -27.66630 | -48.55013 | 22 ft | 2 kts | 122° |
| 2026-04-17 17:09 | -27.66636 | -48.55001 | 22 ft | 15 kts | 122° |
| 2026-04-17 17:10 | -27.66831 | -48.54627 | 20 ft | 92 kts | 120° |
| 2026-04-17 17:10 | -27.67295 | -48.53769 | 20 ft | 157 kts | 123° |
| 2026-04-17 17:10 | -27.67923 | -48.52573 | 278 ft | 188 kts | 116° |
| 2026-04-17 17:10 | -27.68653 | -48.51268 | 765 ft | 207 kts | 128° |
| 2026-04-17 17:11 | -27.69921 | -48.50331 | 1063 ft | 231 kts | 171° |
| 2026-04-17 17:11 | -27.71544 | -48.50461 | 1546 ft | 243 kts | 199° |
| 2026-04-17 17:11 | -27.73216 | -48.51007 | 2107 ft | 257 kts | 198° |
| 2026-04-17 17:11 | -27.74988 | -48.51553 | 2690 ft | 270 kts | 197° |
| 2026-04-17 17:12 | -27.76831 | -48.52097 | 3448 ft | 275 kts | 197° |
| 2026-04-17 17:12 | -27.78689 | -48.52628 | 4251 ft | 277 kts | 197° |
| 2026-04-17 17:12 | -27.80577 | -48.53157 | 5059 ft | 279 kts | 197° |
| 2026-04-17 17:12 | -27.82475 | -48.53684 | 5849 ft | 281 kts | 196° |
| 2026-04-17 17:13 | -27.84383 | -48.54210 | 6623 ft | 283 kts | 197° |
| 2026-04-17 17:13 | -27.86165 | -48.55121 | 7348 ft | 279 kts | 224° |
| 2026-04-17 17:13 | -27.87202 | -48.56897 | 8027 ft | 276 kts | 256° |
| 2026-04-17 17:13 | -27.87192 | -48.59045 | 8699 ft | 278 kts | 289° |
| 2026-04-17 17:14 | -27.86377 | -48.61068 | 9400 ft | 282 kts | 295° |
| 2026-04-17 17:14 | -27.85532 | -48.63068 | 10030 ft | 288 kts | 294° |
| 2026-04-17 17:14 | -27.84646 | -48.65233 | 10112 ft | 314 kts | 294° |
| 2026-04-17 17:15 | -27.82830 | -48.69778 | 10765 ft | 342 kts | 293° |
| 2026-04-17 17:15 | -27.82044 | -48.71768 | 11278 ft | 345 kts | 293° |
| 2026-04-17 17:15 | -27.81053 | -48.74285 | 11925 ft | 349 kts | 292° |
| 2026-04-17 17:15 | -27.80061 | -48.76810 | 12575 ft | 352 kts | 292° |
| 2026-04-17 17:16 | -27.79088 | -48.79369 | 13274 ft | 352 kts | 291° |
| 2026-04-17 17:16 | -27.78154 | -48.81945 | 13945 ft | 353 kts | 290° |
| 2026-04-17 17:16 | -27.77218 | -48.84528 | 14585 ft | 354 kts | 290° |
| 2026-04-17 17:16 | -27.76277 | -48.87121 | 15206 ft | 356 kts | 290° |
| 2026-04-17 17:17 | -27.75320 | -48.89758 | 15824 ft | 357 kts | 290° |
| 2026-04-17 17:17 | -27.74380 | -48.92343 | 16413 ft | 358 kts | 290° |
| 2026-04-17 17:17 | -27.73421 | -48.94977 | 17001 ft | 359 kts | 290° |
| 2026-04-17 17:17 | -27.72570 | -48.97644 | 17566 ft | 358 kts | 279° |
| 2026-04-17 17:18 | -27.72211 | -49.00426 | 18149 ft | 358 kts | 277° |
| 2026-04-17 17:18 | -27.71890 | -49.03234 | 18689 ft | 360 kts | 278° |
| 2026-04-17 17:18 | -27.71553 | -49.06068 | 19200 ft | 362 kts | 278° |
| 2026-04-17 17:18 | -27.71209 | -49.08910 | 19697 ft | 365 kts | 279° |
| 2026-04-17 17:19 | -27.70860 | -49.11761 | 20173 ft | 367 kts | 279° |
| 2026-04-17 17:19 | -27.70503 | -49.14655 | 20630 ft | 370 kts | 280° |
| 2026-04-17 17:19 | -27.70145 | -49.17553 | 21072 ft | 373 kts | 281° |
| 2026-04-17 17:19 | -27.69786 | -49.20443 | 21494 ft | 376 kts | 281° |
| 2026-04-17 17:20 | -27.69419 | -49.23394 | 21954 ft | 378 kts | 281° |
| 2026-04-17 17:20 | -27.69051 | -49.26351 | 22469 ft | 378 kts | 281° |
| 2026-04-17 17:20 | -27.68684 | -49.29290 | 22963 ft | 378 kts | 281° |
| 2026-04-17 17:20 | -27.68315 | -49.32243 | 23422 ft | 379 kts | 281° |
| 2026-04-17 17:21 | -27.67945 | -49.35202 | 23872 ft | 380 kts | 281° |
| 2026-04-17 17:21 | -27.67571 | -49.38180 | 24310 ft | 380 kts | 281° |
| 2026-04-17 17:21 | -27.67198 | -49.41147 | 24742 ft | 381 kts | 281° |
| 2026-04-17 17:21 | -27.66825 | -49.44106 | 25153 ft | 382 kts | 281° |
| 2026-04-17 17:22 | -27.66447 | -49.47102 | 25569 ft | 382 kts | 281° |
| 2026-04-17 17:22 | -27.66068 | -49.50102 | 25969 ft | 383 kts | 281° |
| 2026-04-17 17:22 | -27.65689 | -49.53098 | 26366 ft | 384 kts | 281° |
| 2026-04-17 17:22 | -27.65309 | -49.56093 | 26754 ft | 384 kts | 281° |
| 2026-04-17 17:23 | -27.64925 | -49.59115 | 27141 ft | 385 kts | 281° |
| 2026-04-17 17:23 | -27.64550 | -49.62063 | 27527 ft | 385 kts | 281° |
| 2026-04-17 17:23 | -27.64165 | -49.65087 | 28077 ft | 381 kts | 282° |
| 2026-04-17 17:23 | -27.63790 | -49.68034 | 28632 ft | 377 kts | 281° |
| 2026-04-17 17:24 | -27.63416 | -49.70975 | 29262 ft | 371 kts | 281° |
| 2026-04-17 17:24 | -27.63050 | -49.73837 | 29863 ft | 365 kts | 281° |
| 2026-04-17 17:24 | -27.62687 | -49.76669 | 30399 ft | 360 kts | 281° |
| 2026-04-17 17:24 | -27.62326 | -49.79480 | 30866 ft | 357 kts | 281° |
| 2026-04-17 17:25 | -27.61971 | -49.82228 | 31274 ft | 355 kts | 281° |
| 2026-04-17 17:25 | -27.61613 | -49.85001 | 31674 ft | 353 kts | 281° |
| 2026-04-17 17:25 | -27.61260 | -49.87731 | 32079 ft | 350 kts | 281° |
| 2026-04-17 17:25 | -27.60689 | -49.90402 | 32477 ft | 345 kts | 287° |
| 2026-04-17 17:26 | -27.59995 | -49.93010 | 32854 ft | 343 kts | 287° |
| 2026-04-17 17:26 | -27.59306 | -49.95592 | 33211 ft | 340 kts | 287° |
| 2026-04-17 17:26 | -27.58636 | -49.98126 | 33545 ft | 338 kts | 287° |
| 2026-04-17 17:26 | -27.57961 | -50.00684 | 33751 ft | 339 kts | 287° |
| 2026-04-17 17:27 | -27.57275 | -50.03286 | 33786 ft | 343 kts | 287° |
| 2026-04-17 17:27 | -27.55903 | -50.08496 | 33781 ft | 346 kts | 287° |
| 2026-04-17 17:28 | -27.54530 | -50.13703 | 33781 ft | 346 kts | 287° |
| 2026-04-17 17:28 | -27.53151 | -50.18926 | 33778 ft | 345 kts | 287° |
| 2026-04-17 17:29 | -27.51765 | -50.24169 | 33784 ft | 345 kts | 287° |
| 2026-04-17 17:29 | -27.50389 | -50.29359 | 33792 ft | 345 kts | 287° |
| 2026-04-17 17:30 | -27.49008 | -50.34564 | 33798 ft | 345 kts | 287° |
| 2026-04-17 17:30 | -27.47622 | -50.39780 | 33803 ft | 345 kts | 287° |
| 2026-04-17 17:31 | -27.46233 | -50.44996 | 33805 ft | 345 kts | 287° |
| 2026-04-17 17:31 | -27.44852 | -50.50177 | 33805 ft | 345 kts | 287° |
| 2026-04-17 17:32 | -27.43470 | -50.55348 | 33888 ft | 344 kts | 287° |
| 2026-04-17 17:32 | -27.42070 | -50.60581 | 33902 ft | 345 kts | 287° |
| 2026-04-17 17:33 | -27.41062 | -50.65868 | 33902 ft | 346 kts | 279° |
| 2026-04-17 17:33 | -27.40419 | -50.71265 | 33926 ft | 345 kts | 280° |
| 2026-04-17 17:34 | -27.39737 | -50.76658 | 33932 ft | 345 kts | 280° |
| 2026-04-17 17:34 | -27.39040 | -50.82046 | 33941 ft | 345 kts | 280° |
| 2026-04-17 17:35 | -27.38336 | -50.87423 | 33953 ft | 345 kts | 280° |
| 2026-04-17 17:35 | -27.37627 | -50.92776 | 33960 ft | 345 kts | 281° |
| 2026-04-17 17:36 | -27.36912 | -50.98146 | 33964 ft | 346 kts | 281° |
| 2026-04-17 17:36 | -27.36189 | -51.03561 | 33966 ft | 348 kts | 282° |
| 2026-04-17 17:37 | -27.35464 | -51.08978 | 33967 ft | 349 kts | 282° |
| 2026-04-17 17:37 | -27.34732 | -51.14431 | 33968 ft | 350 kts | 283° |
| 2026-04-17 17:38 | -27.34000 | -51.19866 | 33969 ft | 350 kts | 283° |
| 2026-04-17 17:38 | -27.33266 | -51.25329 | 33969 ft | 350 kts | 283° |
| 2026-04-17 17:39 | -27.32538 | -51.30745 | 33967 ft | 349 kts | 283° |
| 2026-04-17 17:39 | -27.31802 | -51.36194 | 33966 ft | 349 kts | 283° |
| 2026-04-17 17:40 | -27.31065 | -51.41628 | 33967 ft | 349 kts | 283° |
| 2026-04-17 17:40 | -27.30325 | -51.47066 | 33968 ft | 349 kts | 283° |
| 2026-04-17 17:41 | -27.29584 | -51.52495 | 33967 ft | 349 kts | 283° |
| 2026-04-17 17:41 | -27.28839 | -51.57940 | 33967 ft | 350 kts | 283° |
| 2026-04-17 17:42 | -27.28092 | -51.63385 | 33967 ft | 350 kts | 283° |
| 2026-04-17 17:42 | -27.27348 | -51.68811 | 33958 ft | 350 kts | 283° |
| 2026-04-17 17:43 | -27.26601 | -51.74237 | 33969 ft | 349 kts | 283° |
| 2026-04-17 17:43 | -27.25852 | -51.79650 | 33967 ft | 349 kts | 283° |
| 2026-04-17 17:44 | -27.25096 | -51.85097 | 33967 ft | 349 kts | 283° |
| 2026-04-17 17:44 | -27.24345 | -51.90492 | 33967 ft | 349 kts | 283° |
| 2026-04-17 17:45 | -27.23584 | -51.95941 | 33967 ft | 349 kts | 283° |
| 2026-04-17 17:45 | -27.22826 | -52.01350 | 33967 ft | 349 kts | 283° |
| 2026-04-17 17:46 | -27.22066 | -52.06790 | 33967 ft | 349 kts | 283° |
| 2026-04-17 17:46 | -27.21308 | -52.12202 | 33967 ft | 349 kts | 283° |
| 2026-04-17 17:47 | -27.20544 | -52.17615 | 33968 ft | 349 kts | 283° |
| 2026-04-17 17:47 | -27.19774 | -52.23046 | 33966 ft | 349 kts | 283° |
| 2026-04-17 17:48 | -27.19004 | -52.28463 | 33967 ft | 349 kts | 283° |
| 2026-04-17 17:48 | -27.18232 | -52.33872 | 33967 ft | 349 kts | 283° |
| 2026-04-17 17:49 | -27.17460 | -52.39274 | 33967 ft | 349 kts | 283° |
| 2026-04-17 17:49 | -27.16680 | -52.44720 | 33967 ft | 349 kts | 283° |
| 2026-04-17 17:50 | -27.15904 | -52.50111 | 33967 ft | 349 kts | 283° |
| 2026-04-17 17:50 | -27.15121 | -52.55543 | 33967 ft | 349 kts | 283° |
| 2026-04-17 17:51 | -27.14339 | -52.60954 | 33967 ft | 349 kts | 283° |
| 2026-04-17 17:51 | -27.13558 | -52.66392 | 33942 ft | 351 kts | 282° |
| 2026-04-17 17:52 | -27.13095 | -52.71932 | 33971 ft | 351 kts | 280° |
| 2026-04-17 17:52 | -27.12652 | -52.77426 | 33968 ft | 351 kts | 280° |
| 2026-04-17 17:53 | -27.12198 | -52.82895 | 33965 ft | 351 kts | 280° |
| 2026-04-17 17:53 | -27.11734 | -52.88437 | 33965 ft | 353 kts | 280° |
| 2026-04-17 17:54 | -27.11268 | -52.93967 | 33968 ft | 355 kts | 280° |
| 2026-04-17 17:54 | -27.10808 | -52.99580 | 33968 ft | 357 kts | 280° |
| 2026-04-17 17:55 | -27.10338 | -53.05148 | 33969 ft | 358 kts | 280° |
| 2026-04-17 17:55 | -27.09855 | -53.10780 | 33970 ft | 358 kts | 280° |
| 2026-04-17 17:56 | -27.09373 | -53.16385 | 33968 ft | 357 kts | 280° |
| 2026-04-17 17:56 | -27.08893 | -53.21936 | 33967 ft | 357 kts | 280° |
| 2026-04-17 17:57 | -27.08406 | -53.27539 | 33967 ft | 358 kts | 280° |
| 2026-04-17 17:57 | -27.07917 | -53.33155 | 33967 ft | 358 kts | 280° |
| 2026-04-17 17:58 | -27.07427 | -53.38749 | 33968 ft | 358 kts | 280° |
| 2026-04-17 17:58 | -27.06934 | -53.44340 | 33968 ft | 357 kts | 280° |
| 2026-04-17 17:59 | -27.06441 | -53.49924 | 33967 ft | 357 kts | 280° |
| 2026-04-17 17:59 | -27.05944 | -53.55510 | 33968 ft | 358 kts | 280° |
| 2026-04-17 18:00 | -27.05445 | -53.61111 | 33968 ft | 357 kts | 280° |
| 2026-04-17 18:00 | -27.04945 | -53.66685 | 33939 ft | 359 kts | 281° |
| 2026-04-17 18:01 | -27.04444 | -53.72285 | 33972 ft | 358 kts | 281° |
| 2026-04-17 18:01 | -27.03838 | -53.77835 | 33956 ft | 352 kts | 290° |
| 2026-04-17 18:02 | -27.01757 | -53.82799 | 33963 ft | 352 kts | 298° |
| 2026-04-17 18:02 | -26.99522 | -53.87741 | 33915 ft | 354 kts | 298° |
| 2026-04-17 18:03 | -26.97309 | -53.92675 | 33883 ft | 353 kts | 298° |
| 2026-04-17 18:03 | -26.95098 | -53.97610 | 33883 ft | 354 kts | 298° |
| 2026-04-17 18:04 | -26.92867 | -54.02589 | 33886 ft | 355 kts | 298° |
| 2026-04-17 18:04 | -26.90635 | -54.07561 | 33887 ft | 355 kts | 298° |
| 2026-04-17 18:05 | -26.88380 | -54.12553 | 33881 ft | 356 kts | 298° |
| 2026-04-17 18:05 | -26.86133 | -54.17523 | 33888 ft | 356 kts | 298° |
| 2026-04-17 18:06 | -26.83888 | -54.22503 | 33887 ft | 356 kts | 298° |
| 2026-04-17 18:06 | -26.81638 | -54.27493 | 33886 ft | 356 kts | 298° |
| 2026-04-17 18:07 | -26.79385 | -54.32483 | 33886 ft | 356 kts | 298° |
| 2026-04-17 18:07 | -26.77147 | -54.37436 | 33886 ft | 356 kts | 298° |
| 2026-04-17 18:08 | -26.74890 | -54.42426 | 33886 ft | 356 kts | 298° |
| 2026-04-17 18:08 | -26.72639 | -54.47396 | 33886 ft | 356 kts | 298° |
| 2026-04-17 18:09 | -26.70380 | -54.52376 | 33886 ft | 356 kts | 298° |
| 2026-04-17 18:09 | -26.68126 | -54.57340 | 33886 ft | 356 kts | 298° |
| 2026-04-17 18:10 | -26.65871 | -54.62302 | 33886 ft | 356 kts | 298° |
| 2026-04-17 18:10 | -26.63596 | -54.67309 | 33862 ft | 357 kts | 298° |
| 2026-04-17 18:11 | -26.61335 | -54.72268 | 33887 ft | 356 kts | 300° |
| 2026-04-17 18:11 | -26.59755 | -54.74375 | 33891 ft | 357 kts | 317° |
| 2026-04-17 18:11 | -26.57655 | -54.75913 | 33885 ft | 364 kts | 329° |
| 2026-04-17 18:12 | -26.53245 | -54.78670 | 33888 ft | 355 kts | 319° |
| 2026-04-17 18:12 | -26.49370 | -54.82023 | 33826 ft | 345 kts | 319° |
| 2026-04-17 18:13 | -26.45602 | -54.85270 | 33829 ft | 335 kts | 319° |
| 2026-04-17 18:13 | -26.41971 | -54.88387 | 33828 ft | 325 kts | 319° |
| 2026-04-17 18:14 | -26.38426 | -54.91423 | 33828 ft | 315 kts | 319° |
| 2026-04-17 18:14 | -26.34981 | -54.94371 | 33827 ft | 305 kts | 318° |
| 2026-04-17 18:14 | -26.33306 | -54.95804 | 33827 ft | 300 kts | 318° |
| 2026-04-17 18:15 | -26.31663 | -54.97209 | 33827 ft | 295 kts | 318° |
| 2026-04-17 18:15 | -26.30046 | -54.98591 | 33827 ft | 290 kts | 318° |
| 2026-04-17 18:15 | -26.28447 | -54.99958 | 33826 ft | 284 kts | 317° |
| 2026-04-17 18:15 | -26.26889 | -55.01289 | 33825 ft | 279 kts | 317° |
| 2026-04-17 18:16 | -26.25355 | -55.02598 | 33825 ft | 274 kts | 317° |
| 2026-04-17 18:16 | -26.23858 | -55.03877 | 33824 ft | 268 kts | 316° |
| 2026-04-17 18:16 | -26.22393 | -55.05130 | 33823 ft | 262 kts | 316° |
| 2026-04-17 18:16 | -26.20958 | -55.06356 | 33823 ft | 257 kts | 316° |
| 2026-04-17 18:17 | -26.19548 | -55.07561 | 33822 ft | 251 kts | 316° |
| 2026-04-17 18:17 | -26.16831 | -55.09880 | 33819 ft | 238 kts | 315° |
| 2026-04-17 18:17 | -26.15533 | -55.10988 | 33825 ft | 231 kts | 314° |
| 2026-04-17 18:18 | -26.14272 | -55.12064 | 33826 ft | 224 kts | 314° |
| 2026-04-17 18:18 | -26.13052 | -55.13106 | 33821 ft | 217 kts | 314° |
| 2026-04-17 18:18 | -26.11877 | -55.14109 | 33816 ft | 209 kts | 313° |
| 2026-04-17 18:18 | -26.10735 | -55.15084 | 33811 ft | 201 kts | 313° |
| 2026-04-17 18:19 | -26.09647 | -55.16014 | 33804 ft | 192 kts | 312° |
| 2026-04-17 18:19 | -26.08598 | -55.16913 | 33796 ft | 183 kts | 311° |
| 2026-04-17 18:19 | -26.07618 | -55.17751 | 33785 ft | 172 kts | 311° |
| 2026-04-17 18:19 | -26.06690 | -55.18548 | 33771 ft | 161 kts | 310° |
| 2026-04-17 18:20 | -26.05841 | -55.19281 | 33731 ft | 149 kts | 308° |
| 2026-04-17 18:20 | -26.05172 | -55.20159 | 32358 ft | 207 kts | 279° |
| 2026-04-17 18:20 | -26.04190 | -55.21381 | 29386 ft | 291 kts | 336° |
| 2026-04-17 18:20 | -26.02152 | -55.20850 | 28853 ft | 344 kts | 45° |
| 2026-04-17 18:21 | -26.01076 | -55.18580 | 29598 ft | 327 kts | 46° |
| 2026-04-17 18:21 | -25.99720 | -55.16646 | 29226 ft | 299 kts | 17° |
| 2026-04-17 18:21 | -25.98174 | -55.16253 | 29561 ft | 206 kts | 310° |
| 2026-04-17 18:21 | -25.97146 | -55.16791 | 23873 ft | 362 kts | 276° |
| 2026-04-17 18:22 | -25.97386 | -55.18761 | 17915 ft | 335 kts | 181° |
| 2026-04-17 18:22 | -25.97854 | -55.19188 | 13062 ft | 216 kts | 158° |
| 2026-04-17 18:22 | -25.97987 | -55.19294 | 7333 ft | 258 kts | 200° |
| 2026-04-17 18:22 | -25.98525 | -55.19173 | 3368 ft | 142 kts | 152° |